Donau Ekspres II — TCUR7 — position and weather

sailwx.info

Track history (hours):
 
Tides and Currents Weather Stations Pressure Air Temp Water Temp Dewpoint Dewpoint Depression Visibility Wind Speed Wind Dir Waves Ship Positions

Donau Ekspres II

Last reported at 2017-Dec-12 19:32 UTC. Time now 2017-Dec-18 03:36 UTC.
Position N 43°36' W 005°58'.

Length 97 m; draft 4.5 m.

Type: Ship. MMSI: 271043190.

Date/timePositionNaut miles runAvg speedWind from/ knotsBaromVisibWave heightAir tempDewpointWater temp
2017-Dec-12 19:32N 43°36' W 005°58'2 7.2
2017-Dec-12 19:19N 43°37' W 005°58'3 8.0
2017-Dec-12 18:58N 43°40' W 005°55'4 7.8
2017-Dec-12 18:30N 43°42' W 005°51'4 8.2
2017-Dec-12 17:57N 43°45' W 005°47'5 8.3
2017-Dec-12 17:24N 43°48' W 005°42'214 8.2
2017-Dec-11 15:22N 46°15' W 002°03'4 9.3
2017-Dec-11 14:59N 46°19' W 002°03'3 5.3
2017-Dec-11 14:30N 46°21' W 002°04'0 0.1
2017-Dec-11 14:00N 46°21' W 002°04'0 0.0
2017-Dec-11 13:30N 46°21' W 002°04'0 0.0
2017-Dec-11 13:00N 46°21' W 002°04'0 0.0
2017-Dec-11 12:30N 46°21' W 002°04'0 0.0
2017-Dec-11 12:00N 46°21' W 002°04'0 0.1
2017-Dec-11 11:30N 46°21' W 002°04'0 0.0
2017-Dec-11 11:00N 46°21' W 002°04'0 0.1
2017-Dec-11 10:30N 46°21' W 002°04'0 0.1
2017-Dec-11 10:00N 46°21' W 002°04'0 0.1
2017-Dec-11 09:28N 46°21' W 002°04'0 0.2
2017-Dec-11 09:00N 46°21' W 002°04'0 0.6
2017-Dec-11 08:30N 46°21' W 002°04'1 1.1
2017-Dec-11 08:00N 46°22' W 002°05'0 0.9
2017-Dec-11 07:30N 46°23' W 002°05'1 1.7
2017-Dec-11 07:00N 46°23' W 002°05'1 1.6
2017-Dec-11 06:29N 46°24' W 002°05'1 1.5
2017-Dec-11 06:00N 46°25' W 002°06'1 1.3
2017-Dec-11 05:30N 46°25' W 002°06'1 1.1
2017-Dec-11 04:57N 46°26' W 002°07'0 1.0
2017-Dec-11 04:30N 46°26' W 002°07'0 0.8
2017-Dec-11 03:57N 46°26' W 002°08'0 0.2
2017-Dec-11 03:30N 46°26' W 002°08'0 0.5
2017-Dec-11 03:00N 46°26' W 002°08'1 2.1
2017-Dec-11 02:26N 46°25' W 002°09'1 2.2
2017-Dec-11 02:00N 46°24' W 002°10'1 1.4
2017-Dec-11 01:24N 46°23' W 002°10'0 0.3
2017-Dec-11 01:00N 46°23' W 002°10'0 0.1
2017-Dec-11 00:28N 46°23' W 002°10'0 0.1
2017-Dec-11 00:00N 46°23' W 002°10'0 0.0
2017-Dec-10 23:30N 46°23' W 002°10'0 0.2
2017-Dec-10 23:00N 46°23' W 002°10'4 7.7
2017-Dec-10 22:30N 46°26' W 002°13'4 8.0
2017-Dec-10 22:00N 46°29' W 002°17'46 4.0
2017-Dec-10 10:33N 47°07' W 002°55'1 6.3
2017-Dec-10 10:28N 47°07' W 002°55'4 7.6
2017-Dec-10 10:00N 47°11' W 002°55'4 8.4
2017-Dec-10 09:30N 47°15' W 002°58'5 9.2
2017-Dec-10 09:00N 47°19' W 003°01'510.4
2017-Dec-10 08:30N 47°22' W 003°07'510.8
2017-Dec-10 08:00N 47°25' W 003°13'510.0
2017-Dec-10 07:30N 47°27' W 003°20'5 9.8
2017-Dec-10 07:00N 47°29' W 003°27'5 9.9
2017-Dec-10 06:30N 47°30' W 003°34'5 9.9
2017-Dec-10 06:00N 47°30' W 003°41'5 9.8
2017-Dec-10 05:30N 47°32' W 003°48'5 9.8
2017-Dec-10 05:00N 47°33' W 003°55'13 9.0
2017-Dec-10 03:33N 47°38' W 004°13'1 9.1
2017-Dec-10 03:26N 47°39' W 004°15'4 9.0
2017-Dec-10 02:59N 47°41' W 004°20'4 8.9
2017-Dec-10 02:31N 47°43' W 004°25'5 9.3
2017-Dec-10 02:00N 47°46' W 004°31'6 9.5
2017-Dec-10 01:23N 47°48' W 004°39'4 9.7
2017-Dec-10 01:00N 47°50' W 004°44'5 9.9
2017-Dec-10 00:31N 47°53' W 004°50'510.3
2017-Dec-10 00:00N 47°55' W 004°57'510.6
2017-Dec-09 23:30N 47°58' W 005°03'510.7
2017-Dec-09 23:00N 48°01' W 005°10'611.7
2017-Dec-09 22:29N 48°04' W 005°18'4 8.9
2017-Dec-09 21:59N 48°07' W 005°23'5 9.7
2017-Dec-09 21:30N 48°10' W 005°28'5 9.6
2017-Dec-09 21:01N 48°13' W 005°33'5 9.3
2017-Dec-09 20:28N 48°17' W 005°39'126 7.6
2017-Dec-09 03:55N 49°48' W 003°26'4 9.4
2017-Dec-09 03:30N 49°50' W 003°21'5 9.2
2017-Dec-09 03:00N 49°52' W 003°15'5 8.8
2017-Dec-09 02:27N 49°54' W 003°08'4 8.3
2017-Dec-09 02:00N 49°56' W 003°03'4 7.5
2017-Dec-09 01:30N 49°58' W 002°58'3 6.9
2017-Dec-09 01:00N 49°60' W 002°54'3 6.3
2017-Dec-09 00:30N 50°01' W 002°49'3 5.9
2017-Dec-08 23:58N 50°02' W 002°45'3 5.3
2017-Dec-08 23:29N 50°03' W 002°41'2 4.7
2017-Dec-08 23:00N 50°04' W 002°38'3 4.1
2017-Dec-08 22:21N 50°04' W 002°34'100 5.8
2017-Dec-08 04:57N 50°31' W 000°03'3 7.8
2017-Dec-08 04:30N 50°33' E 000°03'4 8.1
2017-Dec-08 04:00N 50°34' E 000°09'4 8.0
2017-Dec-08 03:30N 50°35' E 000°15'4 7.8
2017-Dec-08 03:00N 50°36' E 000°21'4 7.8
2017-Dec-08 02:30N 50°37' E 000°26'4 7.6
2017-Dec-08 02:00N 50°38' E 000°32'4 7.3
2017-Dec-08 01:30N 50°40' E 000°37'3 6.9
2017-Dec-08 01:00N 50°41' E 000°42'4 7.4
2017-Dec-08 00:30N 50°44' E 000°47'4 7.7
2017-Dec-08 00:00N 50°46' E 000°52'4 8.5
2017-Dec-07 23:30N 50°48' E 000°57'5 9.5
2017-Dec-07 22:59N 50°51' E 001°03'610.7
2017-Dec-07 22:23N 50°56' E 001°11'512.0
2017-Dec-07 21:59N 50°59' E 001°17'612.5
2017-Dec-07 21:30N 51°03' E 001°24'612.5
2017-Dec-07 21:00N 51°07' E 001°31'611.9
2017-Dec-07 20:30N 51°11' E 001°39'510.6
2017-Dec-07 20:01N 51°16' E 001°41'5 9.2
2017-Dec-07 19:30N 51°20' E 001°43'4 8.5
2017-Dec-07 19:00N 51°24' E 001°45'4 7.9
2017-Dec-07 18:30N 51°28' E 001°45'4 7.9
2017-Dec-07 18:00N 51°32' E 001°45'4 7.8
2017-Dec-07 17:30N 51°36' E 001°45'4 7.6
2017-Dec-07 17:00N 51°40' E 001°45'4 7.4
2017-Dec-07 16:30N 51°44' E 001°44'4 7.4
2017-Dec-07 16:00N 51°47' E 001°44'4 7.3
2017-Dec-07 15:30N 51°51' E 001°44'3 6.9
2017-Dec-07 15:00N 51°54' E 001°44'4 7.3
2017-Dec-07 14:30N 51°58' E 001°44'4 7.4
2017-Dec-07 14:00N 52°02' E 001°44'4 7.6
2017-Dec-07 13:30N 52°06' E 001°45'4 7.3
2017-Dec-07 13:00N 52°09' E 001°46'21 6.8
2017-Dec-07 09:57N 52°30' E 001°52'3 7.4
2017-Dec-07 09:30N 52°33' E 001°52'4 8.8
2017-Dec-07 09:00N 52°37' E 001°52'510.6
2017-Dec-07 08:30N 52°42' E 001°49'510.7
2017-Dec-07 08:00N 52°46' E 001°44'510.7
2017-Dec-07 07:30N 52°50' E 001°38'510.0
2017-Dec-07 07:00N 52°54' E 001°32'5 9.7
2017-Dec-07 06:30N 52°57' E 001°26'5 9.0
2017-Dec-07 06:00N 52°59' E 001°19'4 8.6
2017-Dec-07 05:30N 53°01' E 001°13'49 7.4
2017-Dec-06 22:54N 53°32' E 000°09'411.0
2017-Dec-06 22:30N 53°35' E 000°03'612.7
2017-Dec-06 22:00N 53°37' W 000°07'3 5.9
2017-Dec-06 21:30N 53°38' W 000°11'0 0.3
2017-Dec-06 21:00N 53°38' W 000°12'  
2017-Dec-04 10:08N 53°38' W 000°11'0 0.0
2017-Dec-04 09:50N 53°38' W 000°11'0 0.0
2017-Dec-04 09:26N 53°38' W 000°11'0 0.0
2017-Dec-04 08:56N 53°38' W 000°11'0 0.0
2017-Dec-04 08:20N 53°38' W 000°11'0 0.0
2017-Dec-04 07:56N 53°38' W 000°11'0 0.0
2017-Dec-04 07:26N 53°38' W 000°11'0 0.0
2017-Dec-03 23:32N 53°38' W 000°11'0 0.0
2017-Dec-03 23:26N 53°38' W 000°11'0 0.0
2017-Dec-03 22:56N 53°38' W 000°11'0 0.0
2017-Dec-03 22:29N 53°38' W 000°11'0 0.0
2017-Dec-03 15:05N 53°38' W 000°11'0 0.0
2017-Dec-03 14:59N 53°38' W 000°11'0 0.0
2017-Dec-03 14:29N 53°38' W 000°11'0 0.0
2017-Dec-03 13:59N 53°38' W 000°11'0 0.0
2017-Dec-03 13:08N 53°38' W 000°11'0 0.0
2017-Dec-03 12:47N 53°38' W 000°11'0 0.0
2017-Dec-03 12:26N 53°38' W 000°11'0 0.0
2017-Dec-03 11:59N 53°38' W 000°11'0 0.0
2017-Dec-03 11:29N 53°38' W 000°11'0 0.0
2017-Dec-03 10:59N 53°38' W 000°11'0 0.0
2017-Dec-03 10:26N 53°38' W 000°11'0 0.0
2017-Dec-03 09:56N 53°38' W 000°11'0 0.0
2017-Dec-03 09:14N 53°38' W 000°11'0 0.0
2017-Dec-03 08:59N 53°38' W 000°11'0 0.0
2017-Dec-03 08:29N 53°38' W 000°11'0 0.0
2017-Dec-03 07:56N 53°38' W 000°11'0 0.0
2017-Dec-03 07:26N 53°38' W 000°11'0 0.0
2017-Dec-03 06:44N 53°38' W 000°11'0 0.0
2017-Dec-03 06:26N 53°38' W 000°11'0 0.0
2017-Dec-03 05:53N 53°38' W 000°11'0 0.0
2017-Dec-03 05:26N 53°38' W 000°11'0 0.0
2017-Dec-03 04:56N 53°38' W 000°11'0 0.0
2017-Dec-03 04:26N 53°38' W 000°11'0 0.0
2017-Dec-03 03:56N 53°38' W 000°11'0 0.0
2017-Dec-03 03:26N 53°38' W 000°11'0 0.0
2017-Dec-03 02:56N 53°38' W 000°11'0 0.0
2017-Dec-03 02:20N 53°38' W 000°11'0 0.0
2017-Dec-03 01:53N 53°38' W 000°11'0 0.0
2017-Dec-03 01:17N 53°38' W 000°11'0 0.0
2017-Dec-03 00:47N 53°38' W 000°11'0 0.0
2017-Dec-03 00:20N 53°38' W 000°11'0 0.0
2017-Dec-02 23:50N 53°38' W 000°11'0 0.0
2017-Dec-02 23:14N 53°38' W 000°11'0 0.0
2017-Dec-02 22:50N 53°38' W 000°11'0 0.0
2017-Dec-02 22:29N 53°38' W 000°11'0 0.0
2017-Dec-02 21:26N 53°38' W 000°11'0 0.0
2017-Dec-02 20:35N 53°38' W 000°11'0 0.0
2017-Dec-02 20:20N 53°38' W 000°11'0 0.0
2017-Dec-02 19:59N 53°38' W 000°11'  
Track history (hours):
 
Tides and Currents Weather Stations Pressure Air Temp Water Temp Dewpoint Dewpoint Depression Visibility Wind Speed Wind Dir Waves Ship Positions

Donau Ekspres II

Last reported at 2017-Dec-12 19:32 UTC. Time now 2017-Dec-18 03:36 UTC.
Position N 43°36' W 005°58'.

Length 97 m; draft 4.5 m.

Type: Ship. MMSI: 271043190.

Date/timePositionNaut miles runAvg speedWind from/ knotsBaromVisibWave heightAir tempDewpointWater temp
2017-Dec-12 19:32N 43°36' W 005°58'2 7.2
2017-Dec-12 19:19N 43°37' W 005°58'3 8.0
2017-Dec-12 18:58N 43°40' W 005°55'4 7.8
2017-Dec-12 18:30N 43°42' W 005°51'4 8.2
2017-Dec-12 17:57N 43°45' W 005°47'5 8.3
2017-Dec-12 17:24N 43°48' W 005°42'214 8.2
2017-Dec-11 15:22N 46°15' W 002°03'4 9.3
2017-Dec-11 14:59N 46°19' W 002°03'3 5.3
2017-Dec-11 14:30N 46°21' W 002°04'0 0.1
2017-Dec-11 14:00N 46°21' W 002°04'0 0.0
2017-Dec-11 13:30N 46°21' W 002°04'0 0.0
2017-Dec-11 13:00N 46°21' W 002°04'0 0.0
2017-Dec-11 12:30N 46°21' W 002°04'0 0.0
2017-Dec-11 12:00N 46°21' W 002°04'0 0.1
2017-Dec-11 11:30N 46°21' W 002°04'0 0.0
2017-Dec-11 11:00N 46°21' W 002°04'0 0.1
2017-Dec-11 10:30N 46°21' W 002°04'0 0.1
2017-Dec-11 10:00N 46°21' W 002°04'0 0.1
2017-Dec-11 09:28N 46°21' W 002°04'0 0.2
2017-Dec-11 09:00N 46°21' W 002°04'0 0.6
2017-Dec-11 08:30N 46°21' W 002°04'1 1.1
2017-Dec-11 08:00N 46°22' W 002°05'0 0.9
2017-Dec-11 07:30N 46°23' W 002°05'1 1.7
2017-Dec-11 07:00N 46°23' W 002°05'1 1.6
2017-Dec-11 06:29N 46°24' W 002°05'1 1.5
2017-Dec-11 06:00N 46°25' W 002°06'1 1.3
2017-Dec-11 05:30N 46°25' W 002°06'1 1.1
2017-Dec-11 04:57N 46°26' W 002°07'0 1.0
2017-Dec-11 04:30N 46°26' W 002°07'0 0.8
2017-Dec-11 03:57N 46°26' W 002°08'0 0.2
2017-Dec-11 03:30N 46°26' W 002°08'0 0.5
2017-Dec-11 03:00N 46°26' W 002°08'1 2.1
2017-Dec-11 02:26N 46°25' W 002°09'1 2.2
2017-Dec-11 02:00N 46°24' W 002°10'1 1.4
2017-Dec-11 01:24N 46°23' W 002°10'0 0.3
2017-Dec-11 01:00N 46°23' W 002°10'0 0.1
2017-Dec-11 00:28N 46°23' W 002°10'0 0.1
2017-Dec-11 00:00N 46°23' W 002°10'0 0.0
2017-Dec-10 23:30N 46°23' W 002°10'0 0.2
2017-Dec-10 23:00N 46°23' W 002°10'4 7.7
2017-Dec-10 22:30N 46°26' W 002°13'4 8.0
2017-Dec-10 22:00N 46°29' W 002°17'46 4.0
2017-Dec-10 10:33N 47°07' W 002°55'1 6.3
2017-Dec-10 10:28N 47°07' W 002°55'4 7.6
2017-Dec-10 10:00N 47°11' W 002°55'4 8.4
2017-Dec-10 09:30N 47°15' W 002°58'5 9.2
2017-Dec-10 09:00N 47°19' W 003°01'510.4
2017-Dec-10 08:30N 47°22' W 003°07'510.8
2017-Dec-10 08:00N 47°25' W 003°13'510.0
2017-Dec-10 07:30N 47°27' W 003°20'5 9.8
2017-Dec-10 07:00N 47°29' W 003°27'5 9.9
2017-Dec-10 06:30N 47°30' W 003°34'5 9.9
2017-Dec-10 06:00N 47°30' W 003°41'5 9.8
2017-Dec-10 05:30N 47°32' W 003°48'5 9.8
2017-Dec-10 05:00N 47°33' W 003°55'13 9.0
2017-Dec-10 03:33N 47°38' W 004°13'1 9.1
2017-Dec-10 03:26N 47°39' W 004°15'4 9.0
2017-Dec-10 02:59N 47°41' W 004°20'4 8.9
2017-Dec-10 02:31N 47°43' W 004°25'5 9.3
2017-Dec-10 02:00N 47°46' W 004°31'6 9.5
2017-Dec-10 01:23N 47°48' W 004°39'4 9.7
2017-Dec-10 01:00N 47°50' W 004°44'5 9.9
2017-Dec-10 00:31N 47°53' W 004°50'510.3
2017-Dec-10 00:00N 47°55' W 004°57'510.6
2017-Dec-09 23:30N 47°58' W 005°03'510.7
2017-Dec-09 23:00N 48°01' W 005°10'611.7
2017-Dec-09 22:29N 48°04' W 005°18'4 8.9
2017-Dec-09 21:59N 48°07' W 005°23'5 9.7
2017-Dec-09 21:30N 48°10' W 005°28'5 9.6
2017-Dec-09 21:01N 48°13' W 005°33'5 9.3
2017-Dec-09 20:28N 48°17' W 005°39'126 7.6
2017-Dec-09 03:55N 49°48' W 003°26'4 9.4
2017-Dec-09 03:30N 49°50' W 003°21'5 9.2
2017-Dec-09 03:00N 49°52' W 003°15'5 8.8
2017-Dec-09 02:27N 49°54' W 003°08'4 8.3
2017-Dec-09 02:00N 49°56' W 003°03'4 7.5
2017-Dec-09 01:30N 49°58' W 002°58'3 6.9
2017-Dec-09 01:00N 49°60' W 002°54'3 6.3
2017-Dec-09 00:30N 50°01' W 002°49'3 5.9
2017-Dec-08 23:58N 50°02' W 002°45'3 5.3
2017-Dec-08 23:29N 50°03' W 002°41'2 4.7
2017-Dec-08 23:00N 50°04' W 002°38'3 4.1
2017-Dec-08 22:21N 50°04' W 002°34'100 5.8
2017-Dec-08 04:57N 50°31' W 000°03'3 7.8
2017-Dec-08 04:30N 50°33' E 000°03'4 8.1
2017-Dec-08 04:00N 50°34' E 000°09'4 8.0
2017-Dec-08 03:30N 50°35' E 000°15'4 7.8
2017-Dec-08 03:00N 50°36' E 000°21'4 7.8
2017-Dec-08 02:30N 50°37' E 000°26'4 7.6
2017-Dec-08 02:00N 50°38' E 000°32'4 7.3
2017-Dec-08 01:30N 50°40' E 000°37'3 6.9
2017-Dec-08 01:00N 50°41' E 000°42'4 7.4
2017-Dec-08 00:30N 50°44' E 000°47'4 7.7
2017-Dec-08 00:00N 50°46' E 000°52'4 8.5
2017-Dec-07 23:30N 50°48' E 000°57'5 9.5
2017-Dec-07 22:59N 50°51' E 001°03'610.7
2017-Dec-07 22:23N 50°56' E 001°11'512.0
2017-Dec-07 21:59N 50°59' E 001°17'612.5
2017-Dec-07 21:30N 51°03' E 001°24'612.5
2017-Dec-07 21:00N 51°07' E 001°31'611.9
2017-Dec-07 20:30N 51°11' E 001°39'510.6
2017-Dec-07 20:01N 51°16' E 001°41'5 9.2
2017-Dec-07 19:30N 51°20' E 001°43'4 8.5
2017-Dec-07 19:00N 51°24' E 001°45'4 7.9
2017-Dec-07 18:30N 51°28' E 001°45'4 7.9
2017-Dec-07 18:00N 51°32' E 001°45'4 7.8
2017-Dec-07 17:30N 51°36' E 001°45'4 7.6
2017-Dec-07 17:00N 51°40' E 001°45'4 7.4
2017-Dec-07 16:30N 51°44' E 001°44'4 7.4
2017-Dec-07 16:00N 51°47' E 001°44'4 7.3
2017-Dec-07 15:30N 51°51' E 001°44'3 6.9
2017-Dec-07 15:00N 51°54' E 001°44'4 7.3
2017-Dec-07 14:30N 51°58' E 001°44'4 7.4
2017-Dec-07 14:00N 52°02' E 001°44'4 7.6
2017-Dec-07 13:30N 52°06' E 001°45'4 7.3
2017-Dec-07 13:00N 52°09' E 001°46'21 6.8
2017-Dec-07 09:57N 52°30' E 001°52'3 7.4
2017-Dec-07 09:30N 52°33' E 001°52'4 8.8
2017-Dec-07 09:00N 52°37' E 001°52'510.6
2017-Dec-07 08:30N 52°42' E 001°49'510.7
2017-Dec-07 08:00N 52°46' E 001°44'510.7
2017-Dec-07 07:30N 52°50' E 001°38'510.0
2017-Dec-07 07:00N 52°54' E 001°32'5 9.7
2017-Dec-07 06:30N 52°57' E 001°26'5 9.0
2017-Dec-07 06:00N 52°59' E 001°19'4 8.6
2017-Dec-07 05:30N 53°01' E 001°13'49 7.4
2017-Dec-06 22:54N 53°32' E 000°09'411.0
2017-Dec-06 22:30N 53°35' E 000°03'612.7
2017-Dec-06 22:00N 53°37' W 000°07'3 5.9
2017-Dec-06 21:30N 53°38' W 000°11'0 0.3
2017-Dec-06 21:00N 53°38' W 000°12'  
2017-Dec-04 10:08N 53°38' W 000°11'0 0.0
2017-Dec-04 09:50N 53°38' W 000°11'0 0.0
2017-Dec-04 09:26N 53°38' W 000°11'0 0.0
2017-Dec-04 08:56N 53°38' W 000°11'0 0.0
2017-Dec-04 08:20N 53°38' W 000°11'0 0.0
2017-Dec-04 07:56N 53°38' W 000°11'0 0.0
2017-Dec-04 07:26N 53°38' W 000°11'0 0.0
2017-Dec-03 23:32N 53°38' W 000°11'0 0.0
2017-Dec-03 23:26N 53°38' W 000°11'0 0.0
2017-Dec-03 22:56N 53°38' W 000°11'0 0.0
2017-Dec-03 22:29N 53°38' W 000°11'0 0.0
2017-Dec-03 15:05N 53°38' W 000°11'0 0.0
2017-Dec-03 14:59N 53°38' W 000°11'0 0.0
2017-Dec-03 14:29N 53°38' W 000°11'0 0.0
2017-Dec-03 13:59N 53°38' W 000°11'0 0.0
2017-Dec-03 13:08N 53°38' W 000°11'0 0.0
2017-Dec-03 12:47N 53°38' W 000°11'0 0.0
2017-Dec-03 12:26N 53°38' W 000°11'0 0.0
2017-Dec-03 11:59N 53°38' W 000°11'0 0.0
2017-Dec-03 11:29N 53°38' W 000°11'0 0.0
2017-Dec-03 10:59N 53°38' W 000°11'0 0.0
2017-Dec-03 10:26N 53°38' W 000°11'0 0.0
2017-Dec-03 09:56N 53°38' W 000°11'0 0.0
2017-Dec-03 09:14N 53°38' W 000°11'0 0.0
2017-Dec-03 08:59N 53°38' W 000°11'0 0.0
2017-Dec-03 08:29N 53°38' W 000°11'0 0.0
2017-Dec-03 07:56N 53°38' W 000°11'0 0.0
2017-Dec-03 07:26N 53°38' W 000°11'0 0.0
2017-Dec-03 06:44N 53°38' W 000°11'0 0.0
2017-Dec-03 06:26N 53°38' W 000°11'0 0.0
2017-Dec-03 05:53N 53°38' W 000°11'0 0.0
2017-Dec-03 05:26N 53°38' W 000°11'0 0.0
2017-Dec-03 04:56N 53°38' W 000°11'0 0.0
2017-Dec-03 04:26N 53°38' W 000°11'0 0.0
2017-Dec-03 03:56N 53°38' W 000°11'0 0.0
2017-Dec-03 03:26N 53°38' W 000°11'0 0.0
2017-Dec-03 02:56N 53°38' W 000°11'0 0.0
2017-Dec-03 02:20N 53°38' W 000°11'0 0.0
2017-Dec-03 01:53N 53°38' W 000°11'0 0.0
2017-Dec-03 01:17N 53°38' W 000°11'0 0.0
2017-Dec-03 00:47N 53°38' W 000°11'0 0.0
2017-Dec-03 00:20N 53°38' W 000°11'0 0.0
2017-Dec-02 23:50N 53°38' W 000°11'0 0.0
2017-Dec-02 23:14N 53°38' W 000°11'0 0.0
2017-Dec-02 22:50N 53°38' W 000°11'0 0.0
2017-Dec-02 22:29N 53°38' W 000°11'0 0.0
2017-Dec-02 21:26N 53°38' W 000°11'0 0.0
2017-Dec-02 20:35N 53°38' W 000°11'0 0.0
2017-Dec-02 20:20N 53°38' W 000°11'0 0.0
2017-Dec-02 19:59N 53°38' W 000°11'  

Dump ship's entire track history